Askov, Minnesota
Current Conditions -  °F | °C
As of 12:46 AM on Saturday 29 Nov 2014 (Local Time) from K04W Reporting Station
Overcast Overcast  
Wind Chill: 19°   Ceiling: 1500
Heat Index: 19°   Visibility: 10mi
Dew Point: 18°   Wind: 0mph
Humidity: 93%   Direction: NA
Pressure: 29.65"   Gusts: NA
Location:  46.19°N, 92.78°W
Report Text: K04W 290646Z AUTO 00000KT 10SM OVC015 M07/M08 A2965 RMK AO2
Loading
Personal Weather Stations






























Interactive Weather Map New forecast layout! Learn more

10-Day Weather Forecast

Advertisements
Track Severe Weather on mobile